createdAt,value
2023-02-22T00:04:49.856Z,9.82
2023-02-22T00:09:51.173Z,13.50
2023-02-22T00:14:52.554Z,8.35
2023-02-22T00:19:54.180Z,10.65
2023-02-22T00:24:57.189Z,11.93
2023-02-22T00:29:58.799Z,10.32
2023-02-22T00:35:00.147Z,11.77
2023-02-22T00:40:01.734Z,11.32
2023-02-22T00:45:05.170Z,14.18
2023-02-22T00:50:06.754Z,11.77
2023-02-22T00:55:10.298Z,12.25
2023-02-22T01:00:19.913Z,10.73
2023-02-22T01:05:23.869Z,16.70
2023-02-22T01:10:28.513Z,16.25
2023-02-22T01:15:30.672Z,14.68
2023-02-22T01:20:32.828Z,12.40
2023-02-22T01:25:35.079Z,12.20
2023-02-22T01:30:37.115Z,15.68
2023-02-22T01:35:40.966Z,12.48
2023-02-22T01:40:43.979Z,16.70
2023-02-22T01:45:57.857Z,16.63
2023-02-22T01:51:11.356Z,16.23
2023-02-22T01:56:13.770Z,15.88
2023-02-22T02:01:18.412Z,18.42
2023-02-22T02:06:20.547Z,15.48
2023-02-22T02:11:25.527Z,16.55
2023-02-22T02:16:36.957Z,16.13
2023-02-22T02:21:56.867Z,16.48
2023-02-22T02:27:18.895Z,21.90
2023-02-22T02:32:44.671Z,20.58
2023-02-22T02:38:12.648Z,25.67
2023-02-22T02:43:29.346Z,15.20
2023-02-22T02:48:34.145Z,19.33
2023-02-22T02:53:39.233Z,25.33
2023-02-22T02:58:49.575Z,21.02
2023-02-22T03:04:15.201Z,24.40
2023-02-22T03:09:44.005Z,22.63
2023-02-22T03:15:05.208Z,19.98
2023-02-22T03:20:21.634Z,19.33
2023-02-22T03:25:33.806Z,24.38
2023-02-22T03:30:39.354Z,25.00
2023-02-22T03:35:48.122Z,26.67
2023-02-22T03:40:54.301Z,25.98
2023-02-22T03:45:56.801Z,24.38
2023-02-22T03:50:58.484Z,24.65
2023-02-22T03:56:01.968Z,26.85
2023-02-22T04:01:03.886Z,20.58
2023-02-22T04:06:05.621Z,17.58
2023-02-22T04:11:06.982Z,16.85
2023-02-22T04:16:08.401Z,15.02
2023-02-22T04:21:09.738Z,20.02
2023-02-22T04:26:11.128Z,20.80
2023-02-22T04:31:12.456Z,67.20
2023-02-22T04:36:15.901Z,76.32
2023-02-22T04:41:18.906Z,108.55
2023-02-22T04:46:20.429Z,104.63
2023-02-22T04:51:21.776Z,84.88
2023-02-22T04:56:23.400Z,171.70
2023-02-22T05:01:24.704Z,59.92
2023-02-22T05:06:26.017Z,72.93
2023-02-22T05:11:27.622Z,29.67
2023-02-22T05:16:28.988Z,42.05
2023-02-22T05:21:30.396Z,126.93
2023-02-22T05:26:31.712Z,55.38
2023-02-22T05:31:33.172Z,49.97
2023-02-22T05:36:34.918Z,31.42
2023-02-22T05:41:36.307Z,18.67
2023-02-22T05:46:37.650Z,52.42
2023-02-22T05:51:39.176Z,123.82
2023-02-22T05:56:40.658Z,169.88
2023-02-22T06:01:42.129Z,113.38
2023-02-22T06:06:43.583Z,66.45
2023-02-22T06:11:45.263Z,44.90
2023-02-22T06:16:52.879Z,110.97
2023-02-22T06:21:56.755Z,48.17
2023-02-22T06:27:01.081Z,71.28
2023-02-22T06:32:02.553Z,162.55
2023-02-22T06:37:03.946Z,142.93
2023-02-22T06:42:05.770Z,363.25
2023-02-22T06:47:07.235Z,169.60
2023-02-22T06:52:09.672Z,341.40
2023-02-22T06:57:11.244Z,216.38
2023-02-22T07:02:13.265Z,92.38
2023-02-22T07:07:14.569Z,46.25
2023-02-22T07:12:16.037Z,26.92
2023-02-22T07:17:17.425Z,31.75
2023-02-22T07:27:36.772Z,31.73
2023-02-22T07:32:38.583Z,21.02
2023-02-22T07:37:40.351Z,49.17
2023-02-22T07:42:59.929Z,43.83
2023-02-22T07:48:04.338Z,20.27
2023-02-22T07:53:11.676Z,41.05
2023-02-22T07:58:32.640Z,67.10
2023-02-22T08:03:36.668Z,23.08
2023-02-22T08:08:38.504Z,92.40
2023-02-22T08:13:47.899Z,64.80
2023-02-22T08:18:51.082Z,43.22
2023-02-22T08:23:54.415Z,40.78
2023-02-22T08:28:57.292Z,86.57
2023-02-22T08:34:01.086Z,185.00
2023-02-22T08:39:02.690Z,38.03
2023-02-22T08:44:09.993Z,60.38
2023-02-22T08:54:27.926Z,47.83
2023-02-22T08:59:29.314Z,29.55
2023-02-22T09:04:30.651Z,32.88
2023-02-22T09:09:31.991Z,17.45
2023-02-22T09:14:33.957Z,20.08
2023-02-22T09:19:35.263Z,14.07
2023-02-22T09:24:36.706Z,20.30
2023-02-22T09:29:39.318Z,12.85
2023-02-22T09:34:45.739Z,13.45
2023-02-22T09:39:47.116Z,13.60
2023-02-22T09:55:57.630Z,13.10
2023-02-22T10:01:42.637Z,13.55
2023-02-22T10:07:01.381Z,14.23
2023-02-22T10:12:12.977Z,12.15
2023-02-22T10:17:34.061Z,12.65
2023-02-22T10:22:50.453Z,16.75
2023-02-22T10:28:01.300Z,16.42
2023-02-22T10:33:15.924Z,15.50
2023-02-22T10:38:20.884Z,17.42
2023-02-22T10:48:51.212Z,21.63
2023-02-22T11:04:30.114Z,25.23
2023-02-22T11:09:50.582Z,28.20
2023-02-22T11:14:51.939Z,24.25
2023-02-22T11:19:53.417Z,24.63
2023-02-22T11:25:07.378Z,30.25
2023-02-22T11:30:25.506Z,24.45
2023-02-22T11:35:35.294Z,28.38
2023-02-22T11:40:36.668Z,25.33
2023-02-22T11:45:44.212Z,26.88
2023-02-22T11:51:06.352Z,27.52
2023-02-22T11:56:17.322Z,27.90
2023-02-22T12:01:59.943Z,28.13
2023-02-22T12:07:10.609Z,23.60
2023-02-22T12:23:20.617Z,25.77
2023-02-22T12:55:11.959Z,23.92
2023-02-22T13:00:23.157Z,21.35
2023-02-22T13:05:24.685Z,24.27
2023-02-22T13:10:36.915Z,25.88
2023-02-22T13:16:00.243Z,25.67
2023-02-22T15:38:30.309Z,26.98
2023-02-22T15:43:32.594Z,21.98
2023-02-22T15:48:35.616Z,22.67
2023-02-22T15:53:46.015Z,22.52
2023-02-22T15:58:48.242Z,31.27
2023-02-22T16:04:20.157Z,20.75
2023-02-22T16:09:29.411Z,25.40
2023-02-22T16:14:37.544Z,26.77
2023-02-22T16:19:42.755Z,28.00
2023-02-22T16:24:44.574Z,28.77
2023-02-22T16:30:25.695Z,27.67
2023-02-22T16:35:29.140Z,27.05
2023-02-22T17:01:35.134Z,22.35
2023-02-22T17:06:36.770Z,28.13
2023-02-22T17:11:38.763Z,27.08
2023-02-22T17:16:40.197Z,26.40
2023-02-22T17:21:41.589Z,27.88
2023-02-22T17:26:43.061Z,28.88
2023-02-22T17:31:44.964Z,27.75
2023-02-22T17:36:46.496Z,29.45
2023-02-22T17:41:54.942Z,30.45
2023-02-22T17:46:56.329Z,27.20
2023-02-22T17:51:57.997Z,30.27
2023-02-22T17:57:00.320Z,24.42
2023-02-22T18:02:03.096Z,29.10
2023-02-22T18:07:04.613Z,30.98
2023-02-22T18:12:06.017Z,24.58
2023-02-22T18:17:07.866Z,29.27
2023-02-22T18:22:09.188Z,32.33
2023-02-22T18:27:11.808Z,28.15
2023-02-22T18:32:13.662Z,27.52
2023-02-22T18:37:20.320Z,28.83
2023-02-22T18:42:30.843Z,26.77
2023-02-22T18:47:38.235Z,29.83
2023-02-22T18:52:46.022Z,28.15
2023-02-22T18:57:48.789Z,30.55
2023-02-22T19:02:50.540Z,30.27
2023-02-22T19:07:51.970Z,31.45
2023-02-22T19:12:53.315Z,24.88
2023-02-22T19:17:55.727Z,30.15
2023-02-22T19:22:57.130Z,28.23
2023-02-22T19:27:58.461Z,29.10
2023-02-22T19:33:02.480Z,30.52
2023-02-22T19:38:04.160Z,26.67
2023-02-22T19:43:05.497Z,29.42
2023-02-22T19:48:06.972Z,30.70
2023-02-22T19:53:13.882Z,28.02
2023-02-22T19:58:15.350Z,30.25
2023-02-22T20:03:23.338Z,28.60
2023-02-22T20:08:26.191Z,29.42
2023-02-22T20:13:27.890Z,33.50
2023-02-22T20:18:30.149Z,33.55
2023-02-22T20:23:31.539Z,33.05
2023-02-22T20:28:34.059Z,30.58
2023-02-22T20:33:35.431Z,32.70
2023-02-22T20:38:37.813Z,34.35
2023-02-22T20:43:39.723Z,36.90
2023-02-22T20:48:41.144Z,31.83
2023-02-22T20:53:44.798Z,35.67
2023-02-22T20:58:46.753Z,36.28
2023-02-22T21:03:48.698Z,42.97
2023-02-22T21:08:56.932Z,35.88
2023-02-22T21:13:59.870Z,41.63
2023-02-22T21:19:04.106Z,44.08
2023-02-22T21:24:05.821Z,41.17
2023-02-22T21:29:07.226Z,39.17
2023-02-22T21:34:12.864Z,38.65
2023-02-22T21:39:18.222Z,43.92
2023-02-22T21:44:20.606Z,46.85
2023-02-22T21:49:23.053Z,40.80
2023-02-22T21:54:24.490Z,44.03
2023-02-22T21:59:25.923Z,38.83
2023-02-22T22:04:31.832Z,46.08
2023-02-22T22:09:35.325Z,43.35
2023-02-22T22:14:37.827Z,39.00
2023-02-22T22:19:39.575Z,38.38
2023-02-22T22:24:45.857Z,35.42
2023-02-22T22:29:47.235Z,38.47
2023-02-22T22:34:49.263Z,45.83
2023-02-22T22:39:50.594Z,39.17
2023-02-22T22:44:51.955Z,38.05
2023-02-22T22:49:59.509Z,46.45
2023-02-22T23:00:22.659Z,37.03
2023-02-22T23:05:28.618Z,41.95
2023-02-22T23:10:31.834Z,38.75
2023-02-22T23:15:33.154Z,33.25
2023-02-22T23:20:38.789Z,41.75
2023-02-22T23:25:41.589Z,36.95
2023-02-22T23:30:43.795Z,37.97
2023-02-22T23:35:48.644Z,37.03
2023-02-22T23:40:53.849Z,39.80
2023-02-22T23:45:57.099Z,39.67
2023-02-22T23:51:01.029Z,46.45
2023-02-22T23:56:02.339Z,38.10
